createdAt,value
2019-04-14T00:00:07.583Z,66.35
2019-04-14T00:01:07.161Z,66.55
2019-04-14T00:02:07.549Z,66.58
2019-04-14T00:03:08.651Z,65.62
2019-04-14T00:04:09.493Z,65.52
2019-04-14T00:05:08.711Z,65.62
2019-04-14T00:06:09.171Z,65.83
2019-04-14T00:07:10.165Z,66.03
2019-04-14T00:08:10.964Z,65.83
2019-04-14T00:09:10.258Z,65.83
2019-04-14T00:10:11.456Z,65.62
2019-04-14T00:11:11.011Z,65.72
2019-04-14T00:12:12.030Z,66.35
2019-04-14T00:13:11.783Z,65.72
2019-04-14T00:14:12.158Z,66.35
2019-04-14T00:15:23.502Z,65.83
2019-04-14T00:16:14.173Z,65.93
2019-04-14T00:17:13.354Z,66.35
2019-04-14T00:18:14.252Z,66.24
2019-04-14T00:19:15.115Z,66.03
2019-04-14T00:20:14.440Z,66.03
2019-04-14T00:21:15.156Z,66.14
2019-04-14T00:22:16.228Z,66.14
2019-04-14T00:23:15.608Z,66.14
2019-04-14T00:24:16.276Z,66.03
2019-04-14T00:25:17.380Z,66.03
2019-04-14T00:26:16.772Z,66.03
2019-04-14T00:27:17.241Z,66.03
2019-04-14T00:28:18.476Z,65.72
2019-04-14T00:29:17.935Z,65.93
2019-04-14T00:30:18.718Z,65.72
2019-04-14T00:31:19.475Z,66.35
2019-04-14T00:32:19.083Z,65.83
2019-04-14T00:33:19.548Z,66.96
2019-04-14T00:34:20.300Z,66.24
2019-04-14T00:35:21.013Z,66.86
2019-04-14T00:36:21.822Z,66.24
2019-04-14T00:37:20.994Z,66.86
2019-04-14T00:38:21.730Z,67.07
2019-04-14T00:39:22.654Z,66.75
2019-04-14T00:40:22.141Z,67.58
2019-04-14T00:41:33.801Z,67.48
2019-04-14T00:42:23.888Z,67.38
2019-04-14T00:43:24.255Z,67.90
2019-04-14T00:44:23.678Z,67.38
2019-04-14T00:45:33.958Z,68.00
2019-04-14T00:46:25.496Z,68.10
2019-04-14T00:47:24.841Z,67.38
2019-04-14T00:48:25.833Z,67.79
2019-04-14T00:49:26.759Z,67.72
2019-04-14T00:50:25.961Z,67.82
2019-04-14T00:51:26.554Z,67.93
2019-04-14T00:52:27.586Z,68.44
2019-04-14T00:53:27.434Z,68.21
2019-04-14T00:54:28.244Z,67.72
2019-04-14T00:55:27.903Z,68.31
2019-04-14T00:56:28.268Z,68.34
2019-04-14T00:57:28.998Z,68.83
2019-04-14T00:58:29.989Z,68.73
2019-04-14T00:59:29.452Z,69.38
2019-04-14T01:00:29.830Z,69.35
2019-04-14T01:01:30.789Z,69.17
2019-04-14T01:02:31.753Z,69.48
2019-04-14T01:03:31.051Z,69.27
2019-04-14T01:04:31.639Z,69.48
2019-04-14T01:05:33.381Z,69.17
2019-04-14T01:06:32.223Z,69.69
2019-04-14T01:07:32.725Z,69.59
2019-04-14T01:08:33.505Z,70.10
2019-04-14T01:09:33.280Z,69.69
2019-04-14T01:10:34.393Z,70.31
2019-04-14T01:11:34.051Z,70.10
2019-04-14T01:12:34.434Z,70.10
2019-04-14T01:13:35.369Z,70.52
2019-04-14T01:14:36.339Z,70.94
2019-04-14T01:15:46.625Z,70.59
2019-04-14T01:16:36.955Z,70.62
2019-04-14T01:17:37.302Z,70.94
2019-04-14T01:18:36.712Z,71.35
2019-04-14T01:19:37.362Z,71.66
2019-04-14T01:20:38.524Z,71.66
2019-04-14T01:21:39.117Z,71.87
2019-04-14T01:22:38.291Z,71.87
2019-04-14T01:23:39.204Z,72.36
2019-04-14T01:24:40.285Z,72.91
2019-04-14T01:25:39.401Z,72.18
2019-04-14T01:26:39.998Z,72.91
2019-04-14T01:27:40.649Z,73.01
2019-04-14T01:28:41.791Z,72.80
2019-04-14T01:29:40.976Z,73.63
2019-04-14T01:30:41.543Z,73.63
2019-04-14T01:31:42.505Z,73.63
2019-04-14T01:32:42.113Z,73.94
2019-04-14T01:33:42.528Z,74.15
2019-04-14T01:34:43.355Z,75.09
2019-04-14T01:35:44.321Z,75.19
2019-04-14T01:36:43.659Z,75.71
2019-04-14T01:37:44.156Z,75.29
2019-04-14T01:38:45.001Z,76.54
2019-04-14T01:39:45.941Z,76.54
2019-04-14T01:40:45.208Z,76.02
2019-04-14T01:41:45.692Z,76.75
2019-04-14T01:42:46.319Z,77.09
2019-04-14T01:43:47.444Z,77.61
2019-04-14T01:44:46.754Z,77.30
2019-04-14T01:45:59.004Z,77.92
2019-04-14T01:46:48.505Z,77.82
2019-04-14T01:47:48.912Z,77.85
2019-04-14T01:48:48.264Z,78.13
2019-04-14T01:49:48.720Z,78.55
2019-04-14T01:50:49.573Z,78.65
2019-04-14T01:51:50.379Z,78.86
2019-04-14T01:52:50.116Z,78.99
2019-04-14T01:53:51.032Z,78.86
2019-04-14T01:54:51.538Z,78.75
2019-04-14T01:55:51.013Z,78.96
2019-04-14T01:56:51.390Z,78.99
2019-04-14T01:57:52.478Z,79.27
2019-04-14T01:58:53.299Z,78.96
2019-04-14T01:59:52.591Z,79.61
2019-04-14T02:00:53.083Z,79.41
2019-04-14T02:01:54.264Z,79.61
2019-04-14T02:02:53.608Z,79.72
2019-04-14T02:03:54.160Z,79.51
2019-04-14T02:04:55.341Z,79.51
2019-04-14T02:05:55.995Z,80.41
2019-04-14T02:06:55.259Z,80.55
2019-04-14T02:07:55.847Z,80.83
2019-04-14T02:08:56.867Z,80.66
2019-04-14T02:09:57.453Z,80.41
2019-04-14T02:10:56.716Z,80.45
2019-04-14T02:11:57.450Z,80.66
2019-04-14T02:12:58.466Z,80.41
2019-04-14T02:13:57.871Z,81.18
2019-04-14T02:14:58.327Z,81.49
2019-04-14T02:16:05.618Z,81.38
2019-04-14T02:17:00.839Z,81.59
2019-04-14T02:17:59.379Z,81.49
2019-04-14T02:19:00.277Z,81.70
2019-04-14T02:20:01.198Z,82.01
2019-04-14T02:21:02.035Z,81.70
2019-04-14T02:22:00.901Z,82.11
2019-04-14T02:23:01.815Z,82.21
2019-04-14T02:24:02.488Z,82.32
2019-04-14T02:25:03.476Z,82.32
2019-04-14T02:26:02.463Z,82.73
2019-04-14T02:27:03.506Z,82.84
2019-04-14T02:28:03.230Z,82.84
2019-04-14T02:29:03.699Z,82.53
2019-04-14T02:30:06.487Z,82.53
2019-04-14T02:31:17.532Z,83.08
2019-04-14T02:33:39.024Z,83.04
2019-04-14T02:36:36.246Z,83.70
2019-04-14T02:37:34.804Z,83.60
2019-04-14T02:40:39.252Z,83.81
2019-04-14T02:41:41.460Z,84.22
2019-04-14T02:42:52.431Z,84.33
2019-04-14T02:43:41.694Z,84.84
2019-04-14T02:44:36.445Z,84.84
2019-04-14T02:45:47.189Z,85.36
2019-04-14T02:46:43.920Z,84.95
2019-04-14T02:48:07.209Z,85.68
2019-04-14T02:48:44.302Z,85.61
2019-04-14T02:49:44.283Z,85.61
2019-04-14T02:50:30.494Z,85.20
2019-04-14T02:51:33.697Z,85.51
2019-04-14T02:52:35.766Z,85.99
2019-04-14T02:53:44.296Z,86.30
2019-04-14T02:55:42.842Z,86.55
2019-04-14T02:56:35.747Z,86.55
2019-04-14T02:57:52.535Z,86.55
2019-04-14T02:58:47.939Z,86.34
2019-04-14T02:59:45.291Z,86.76
2019-04-14T03:00:45.638Z,87.07
2019-04-14T03:02:01.084Z,86.96
2019-04-14T03:03:08.797Z,86.44
2019-04-14T03:03:41.011Z,86.76
2019-04-14T03:04:44.085Z,86.86
2019-04-14T03:05:44.850Z,86.86
2019-04-14T03:06:46.796Z,87.17
2019-04-14T03:07:45.874Z,87.17
2019-04-14T03:09:42.443Z,87.48
2019-04-14T03:11:48.972Z,88.00
2019-04-14T03:12:46.509Z,88.46
2019-04-14T03:13:45.598Z,88.04
2019-04-14T03:14:49.569Z,88.35
2019-04-14T03:15:53.625Z,88.15
2019-04-14T03:16:54.350Z,88.67
2019-04-14T03:17:47.290Z,88.56
2019-04-14T03:18:44.838Z,88.87
2019-04-14T03:19:59.396Z,89.08
2019-04-14T03:20:47.510Z,89.50
2019-04-14T03:21:48.816Z,89.29
2019-04-14T03:24:06.689Z,89.60
2019-04-14T03:24:39.296Z,89.29
2019-04-14T03:25:45.498Z,88.77
2019-04-14T03:26:51.824Z,89.50
2019-04-14T03:28:44.240Z,89.70
2019-04-14T03:29:59.901Z,89.60
2019-04-14T03:33:21.646Z,89.70
2019-04-14T03:34:18.016Z,89.70
2019-04-14T03:35:09.767Z,90.54
2019-04-14T03:36:25.416Z,90.33
2019-04-14T03:38:15.852Z,89.70
2019-04-14T03:38:58.852Z,89.70
2019-04-14T03:39:51.661Z,90.02
2019-04-14T03:40:58.900Z,89.50
2019-04-14T03:41:54.815Z,89.92
2019-04-14T03:43:03.767Z,89.81
2019-04-14T03:43:54.967Z,89.50
2019-04-14T03:44:56.514Z,89.81
2019-04-14T03:46:02.693Z,89.81
2019-04-14T03:47:02.949Z,89.39
2019-04-14T03:48:31.720Z,90.12
2019-04-14T03:49:08.025Z,90.44
2019-04-14T03:50:00.317Z,90.23
2019-04-14T03:51:02.128Z,90.44
2019-04-14T03:51:57.684Z,90.54
2019-04-14T03:53:12.017Z,90.54
2019-04-14T03:54:52.482Z,90.44
2019-04-14T03:55:43.233Z,90.44
2019-04-14T03:56:38.041Z,89.81
2019-04-14T03:57:37.443Z,90.02
2019-04-14T03:58:37.899Z,90.33
2019-04-14T03:59:39.203Z,90.33
2019-04-14T04:00:39.980Z,90.54
2019-04-14T04:01:39.153Z,90.64
2019-04-14T04:02:40.209Z,90.44
2019-04-14T04:03:39.740Z,90.54
2019-04-14T04:04:40.207Z,90.54
2019-04-14T04:05:41.330Z,90.02
2019-04-14T04:06:42.047Z,89.92
2019-04-14T04:07:41.305Z,90.64
2019-04-14T04:08:42.042Z,90.12
2019-04-14T04:09:43.224Z,90.44
2019-04-14T04:10:42.459Z,89.50
2019-04-14T04:11:43.417Z,89.92
2019-04-14T04:12:44.276Z,90.02
2019-04-14T04:13:43.584Z,89.81
2019-04-14T04:14:44.181Z,90.33
2019-04-14T04:15:45.392Z,90.44
2019-04-14T04:16:46.094Z,89.70
2019-04-14T04:17:45.217Z,90.23
2019-04-14T04:18:50.882Z,90.44
2019-04-14T04:19:46.989Z,90.44
2019-04-14T04:20:46.296Z,90.23
2019-04-14T04:21:46.698Z,89.92
2019-04-14T04:22:47.620Z,89.67
2019-04-14T04:23:47.431Z,89.92
2019-04-14T04:24:47.885Z,89.56
2019-04-14T04:25:48.673Z,90.02
2019-04-14T04:26:49.545Z,90.02
2019-04-14T04:27:48.972Z,89.70
2019-04-14T04:28:49.636Z,89.50
2019-04-14T04:29:50.566Z,89.70
2019-04-14T04:30:50.135Z,89.70
2019-04-14T04:31:50.524Z,89.92
2019-04-14T04:32:51.521Z,90.02
2019-04-14T04:33:52.294Z,89.25
2019-04-14T04:34:51.647Z,89.29
2019-04-14T04:35:52.217Z,89.92
2019-04-14T04:36:53.044Z,89.70
2019-04-14T04:37:52.781Z,89.70
2019-04-14T04:38:53.192Z,90.19
2019-04-14T04:39:54.023Z,90.02
2019-04-14T04:40:54.991Z,89.70
2019-04-14T04:41:54.495Z,89.81
2019-04-14T04:42:54.863Z,89.92
2019-04-14T04:43:56.034Z,90.50
2019-04-14T04:44:55.512Z,90.33
2019-04-14T04:45:56.002Z,91.16
2019-04-14T04:46:56.924Z,91.27
2019-04-14T04:47:57.494Z,91.27
2019-04-14T04:49:03.208Z,91.58
2019-04-14T04:49:58.595Z,91.27
2019-04-14T04:50:58.522Z,91.37
2019-04-14T04:51:58.215Z,91.27
2019-04-14T04:52:58.575Z,91.37
2019-04-14T04:53:59.455Z,91.37
2019-04-14T04:55:00.156Z,91.27
2019-04-14T04:55:59.797Z,91.68
2019-04-14T04:57:00.194Z,91.78
2019-04-14T04:58:01.339Z,91.58
2019-04-14T04:59:01.140Z,91.37
2019-04-14T05:00:01.286Z,91.74
2019-04-14T05:01:01.933Z,91.89
2019-04-14T05:02:02.644Z,91.78
2019-04-14T05:03:03.577Z,91.85
2019-04-14T05:04:02.841Z,91.47
2019-04-14T05:05:03.497Z,91.43
2019-04-14T05:06:04.586Z,91.37
2019-04-14T05:07:03.952Z,91.06
2019-04-14T05:08:04.433Z,91.47
2019-04-14T05:09:05.623Z,91.37
2019-04-14T05:10:05.109Z,91.58
2019-04-14T05:11:05.511Z,91.16
2019-04-14T05:12:06.658Z,90.85
2019-04-14T05:13:07.289Z,91.37
2019-04-14T05:14:06.715Z,91.58
2019-04-14T05:15:07.339Z,91.89
2019-04-14T05:16:08.464Z,91.78
2019-04-14T05:17:07.914Z,92.41
2019-04-14T05:18:09.126Z,92.20
2019-04-14T05:19:17.258Z,92.26
2019-04-14T05:20:09.960Z,92.10
2019-04-14T05:21:10.335Z,92.10
2019-04-14T05:22:09.720Z,91.68
2019-04-14T05:23:10.300Z,91.89
2019-04-14T05:24:11.397Z,91.78
2019-04-14T05:25:10.902Z,91.78
2019-04-14T05:26:11.356Z,91.89
2019-04-14T05:27:12.413Z,91.68
2019-04-14T05:28:13.315Z,91.89
2019-04-14T05:29:12.495Z,91.99
2019-04-14T05:30:13.282Z,91.99
2019-04-14T05:31:14.315Z,92.10
2019-04-14T05:32:13.561Z,91.78
2019-04-14T05:33:14.134Z,91.99
2019-04-14T05:34:15.070Z,92.30
2019-04-14T05:35:14.755Z,91.89
2019-04-14T05:36:15.176Z,92.16
2019-04-14T05:37:16.075Z,92.05
2019-04-14T05:38:16.946Z,91.95
2019-04-14T05:39:16.314Z,91.85
2019-04-14T05:40:16.766Z,91.85
2019-04-14T05:41:17.931Z,91.22
2019-04-14T05:42:20.138Z,91.85
2019-04-14T05:43:28.320Z,92.05
2019-04-14T05:44:19.208Z,92.05
2019-04-14T05:45:19.751Z,91.33
2019-04-14T05:46:18.978Z,91.85
2019-04-14T05:47:19.727Z,91.85
2019-04-14T05:48:20.383Z,91.74
2019-04-14T05:49:28.610Z,91.74
2019-04-14T05:50:22.621Z,91.74
2019-04-14T05:51:21.723Z,91.53
2019-04-14T05:52:21.346Z,91.58
2019-04-14T05:53:21.845Z,91.68
2019-04-14T05:54:23.058Z,92.16
2019-04-14T05:55:22.524Z,92.30
2019-04-14T05:56:23.151Z,91.95
2019-04-14T05:57:24.202Z,92.10
2019-04-14T05:58:23.645Z,91.74
2019-04-14T05:59:24.226Z,91.74
2019-04-14T06:00:25.371Z,91.95
2019-04-14T06:01:24.879Z,91.74
2019-04-14T06:02:27.468Z,92.47
2019-04-14T06:03:25.648Z,92.68
2019-04-14T06:04:26.414Z,92.78
2019-04-14T06:05:27.404Z,92.51
2019-04-14T06:06:26.723Z,91.89
2019-04-14T06:07:27.123Z,91.95
2019-04-14T06:08:27.490Z,91.64
2019-04-14T06:09:27.891Z,92.41
2019-04-14T06:10:28.255Z,92.78
2019-04-14T06:11:28.657Z,92.82
2019-04-14T06:12:29.056Z,92.82
2019-04-14T06:13:29.390Z,93.45
2019-04-14T06:14:29.796Z,94.18
2019-04-14T06:15:30.162Z,93.87
2019-04-14T06:16:30.565Z,93.66
2019-04-14T06:17:30.931Z,93.97
2019-04-14T06:18:31.290Z,92.93
2019-04-14T06:19:37.138Z,92.82
2019-04-14T06:20:33.134Z,93.03
2019-04-14T06:21:32.458Z,92.82
2019-04-14T06:22:32.855Z,92.61
2019-04-14T06:23:33.209Z,93.14
2019-04-14T06:24:33.629Z,93.55
2019-04-14T06:25:36.255Z,93.87
2019-04-14T06:26:34.431Z,94.28
2019-04-14T06:27:34.778Z,94.18
2019-04-14T06:28:35.191Z,92.72
2019-04-14T06:29:35.617Z,92.61
2019-04-14T06:30:35.911Z,92.61
2019-04-14T06:31:36.315Z,93.03
2019-04-14T06:32:36.703Z,92.72
2019-04-14T06:33:37.063Z,92.72
2019-04-14T06:34:37.448Z,92.72
2019-04-14T06:35:37.832Z,93.97
2019-04-14T06:36:38.253Z,93.35
2019-04-14T06:37:38.798Z,94.18
2019-04-14T06:38:39.255Z,94.28
2019-04-14T06:39:39.408Z,94.49
2019-04-14T06:40:39.794Z,94.07
2019-04-14T06:41:40.216Z,94.55
2019-04-14T06:42:40.602Z,93.93
2019-04-14T06:43:48.335Z,93.93
2019-04-14T06:44:42.378Z,93.62
2019-04-14T06:45:41.827Z,93.82
2019-04-14T06:46:42.127Z,93.76
2019-04-14T06:47:42.512Z,93.76
2019-04-14T06:48:42.877Z,93.55
2019-04-14T06:49:48.894Z,93.87
2019-04-14T06:50:46.316Z,93.62
2019-04-14T06:51:44.037Z,94.18
2019-04-14T06:52:44.515Z,93.97
2019-04-14T06:53:44.839Z,93.76
2019-04-14T06:54:45.161Z,93.97
2019-04-14T06:55:45.575Z,94.18
2019-04-14T06:56:45.954Z,94.28
2019-04-14T06:57:46.342Z,93.93
2019-04-14T06:58:46.713Z,93.55
2019-04-14T06:59:47.109Z,94.07
2019-04-14T07:00:47.518Z,94.18
2019-04-14T07:01:48.014Z,94.49
2019-04-14T07:02:48.316Z,94.28
2019-04-14T07:03:48.640Z,94.45
2019-04-14T07:04:49.033Z,94.24
2019-04-14T07:05:49.434Z,93.93
2019-04-14T07:06:51.308Z,93.72
2019-04-14T07:07:56.894Z,93.87
2019-04-14T07:08:51.543Z,94.13
2019-04-14T07:09:50.965Z,93.82
2019-04-14T07:10:51.509Z,93.76
2019-04-14T07:11:51.784Z,93.82
2019-04-14T07:12:52.138Z,94.03
2019-04-14T07:13:52.474Z,94.34
2019-04-14T07:14:52.886Z,94.55
2019-04-14T07:15:53.282Z,93.72
2019-04-14T07:16:53.682Z,93.72
2019-04-14T07:17:54.066Z,93.72
2019-04-14T07:18:54.541Z,93.99
2019-04-14T07:20:01.939Z,94.40
2019-04-14T07:20:56.200Z,93.47
2019-04-14T07:21:55.615Z,93.88
2019-04-14T07:22:55.965Z,92.68
2019-04-14T07:23:56.328Z,92.63
2019-04-14T07:24:56.699Z,93.37
2019-04-14T07:25:57.117Z,93.57
2019-04-14T07:26:57.757Z,93.57
2019-04-14T07:27:57.772Z,93.63
2019-04-14T07:28:58.158Z,93.43
2019-04-14T07:29:58.524Z,93.99
2019-04-14T07:30:58.927Z,93.57
2019-04-14T07:31:59.292Z,93.99
2019-04-14T07:32:59.668Z,93.53
2019-04-14T07:34:00.024Z,93.63
2019-04-14T07:35:00.480Z,93.63
2019-04-14T07:36:00.859Z,93.84
2019-04-14T07:37:01.259Z,93.32
2019-04-14T07:38:01.640Z,93.32
2019-04-14T07:39:02.004Z,93.74
2019-04-14T07:40:02.386Z,92.66
2019-04-14T07:41:02.773Z,93.80
2019-04-14T07:42:03.168Z,92.93
2019-04-14T07:43:03.598Z,92.55
2019-04-14T07:44:04.027Z,92.51
2019-04-14T07:45:04.310Z,91.89
2019-04-14T07:46:04.702Z,91.78
2019-04-14T07:47:05.103Z,91.78
2019-04-14T07:48:05.485Z,91.68
2019-04-14T07:49:05.849Z,92.30
2019-04-14T07:50:14.059Z,92.51
2019-04-14T07:51:07.634Z,91.68
2019-04-14T07:52:07.113Z,91.06
2019-04-14T07:53:07.382Z,91.16
2019-04-14T07:54:07.754Z,91.53
2019-04-14T07:55:08.142Z,91.64
2019-04-14T07:56:08.549Z,91.64
2019-04-14T07:57:08.916Z,91.78
2019-04-14T07:58:09.295Z,91.95
2019-04-14T07:59:09.697Z,91.22
2019-04-14T08:00:10.135Z,91.58
2019-04-14T08:01:10.467Z,91.89
2019-04-14T08:02:10.835Z,91.89
2019-04-14T08:03:11.214Z,91.27
2019-04-14T08:04:11.629Z,91.68
2019-04-14T08:05:12.012Z,92.72
2019-04-14T08:06:12.414Z,92.51
2019-04-14T08:07:12.798Z,92.51
2019-04-14T08:08:13.207Z,92.10
2019-04-14T08:09:13.540Z,91.99
2019-04-14T08:10:13.916Z,93.02
2019-04-14T08:11:14.308Z,91.27
2019-04-14T08:12:14.695Z,91.89
2019-04-14T08:13:15.066Z,92.20
2019-04-14T08:14:15.454Z,92.72
2019-04-14T08:15:15.819Z,91.78
2019-04-14T08:16:16.276Z,91.89
2019-04-14T08:17:16.704Z,91.74
2019-04-14T08:18:16.983Z,92.16
2019-04-14T08:19:17.617Z,92.36
2019-04-14T08:20:26.843Z,91.02
2019-04-14T08:21:19.147Z,91.12
2019-04-14T08:22:18.530Z,90.87
2019-04-14T08:23:18.938Z,91.70
2019-04-14T08:24:19.308Z,91.60
2019-04-14T08:25:19.727Z,91.80
2019-04-14T08:26:20.061Z,90.87
2019-04-14T08:27:20.441Z,90.45
2019-04-14T08:28:21.247Z,91.08
2019-04-14T08:29:21.204Z,90.77
2019-04-14T08:30:21.565Z,90.97
2019-04-14T08:31:21.960Z,91.28
2019-04-14T08:32:22.395Z,91.39
2019-04-14T08:33:22.824Z,91.08
2019-04-14T08:34:23.115Z,91.03
2019-04-14T08:35:23.481Z,91.55
2019-04-14T08:36:23.870Z,90.87
2019-04-14T08:37:24.265Z,90.72
2019-04-14T08:38:24.631Z,90.56
2019-04-14T08:39:25.048Z,91.03
2019-04-14T08:40:25.395Z,90.83
2019-04-14T08:41:25.859Z,90.41
2019-04-14T08:42:26.182Z,90.35
2019-04-14T08:43:26.549Z,91.03
2019-04-14T08:44:26.934Z,91.49
2019-04-14T08:45:27.533Z,91.24
2019-04-14T08:46:28.424Z,90.72
2019-04-14T08:47:28.078Z,91.14
2019-04-14T08:48:28.427Z,90.41
2019-04-14T08:49:28.922Z,90.72
2019-04-14T08:50:38.727Z,90.52
2019-04-14T08:51:30.633Z,90.68
2019-04-14T08:52:30.015Z,90.52
2019-04-14T08:53:30.405Z,90.16
2019-04-14T08:54:30.784Z,89.96
2019-04-14T08:55:31.158Z,90.06
2019-04-14T08:56:31.546Z,88.71
2019-04-14T08:57:31.965Z,89.03
2019-04-14T08:58:32.375Z,89.40
2019-04-14T08:59:32.693Z,90.02
2019-04-14T09:00:33.076Z,89.92
2019-04-14T09:01:33.464Z,89.98
2019-04-14T09:02:33.857Z,87.60
2019-04-14T09:03:34.223Z,87.39
2019-04-14T09:04:34.627Z,86.98
2019-04-14T09:05:34.970Z,87.15
2019-04-14T09:06:35.493Z,86.83
2019-04-14T09:07:35.788Z,86.42
2019-04-14T09:08:36.162Z,86.63
2019-04-14T09:09:36.559Z,86.21
2019-04-14T09:10:36.934Z,86.18
2019-04-14T09:11:37.333Z,86.07
2019-04-14T09:12:37.745Z,86.28
2019-04-14T09:13:38.103Z,84.79
2019-04-14T09:14:38.616Z,85.00
2019-04-14T09:15:38.824Z,84.79
2019-04-14T09:16:39.228Z,83.97
2019-04-14T09:17:39.674Z,83.14
2019-04-14T09:18:39.992Z,83.65
2019-04-14T09:19:40.391Z,83.28
2019-04-14T09:20:51.391Z,83.86
2019-04-14T09:21:42.123Z,83.65
2019-04-14T09:22:41.591Z,83.86
2019-04-14T09:23:41.901Z,83.86
2019-04-14T09:24:42.302Z,83.34
2019-04-14T09:25:42.669Z,84.07
2019-04-14T09:26:43.055Z,84.07
2019-04-14T09:27:43.463Z,83.34
2019-04-14T09:28:43.842Z,83.86
2019-04-14T09:29:44.225Z,84.79
2019-04-14T09:30:44.619Z,84.31
2019-04-14T09:31:45.047Z,83.86
2019-04-14T09:32:45.408Z,83.65
2019-04-14T09:33:45.743Z,84.17
2019-04-14T09:34:46.138Z,83.65
2019-04-14T09:35:46.502Z,84.28
2019-04-14T09:36:46.883Z,84.07
2019-04-14T09:37:47.320Z,83.65
2019-04-14T09:38:47.641Z,83.34
2019-04-14T09:39:48.133Z,84.28
2019-04-14T09:40:48.432Z,84.38
2019-04-14T09:41:48.814Z,84.38
2019-04-14T09:42:49.266Z,84.48
2019-04-14T09:43:49.562Z,83.34
2019-04-14T09:44:49.972Z,83.34
2019-04-14T09:45:50.343Z,84.28
2019-04-14T09:46:50.726Z,84.07
2019-04-14T09:47:51.270Z,84.28
2019-04-14T09:48:51.460Z,84.38
2019-04-14T09:49:51.880Z,84.89
2019-04-14T09:51:03.783Z,86.03
2019-04-14T09:51:53.644Z,85.10
2019-04-14T09:52:53.058Z,85.21
2019-04-14T09:53:53.405Z,85.52
2019-04-14T09:54:53.805Z,84.17
2019-04-14T09:55:54.208Z,84.38
2019-04-14T09:56:54.536Z,84.79
2019-04-14T09:57:55.181Z,84.38
2019-04-14T09:58:55.305Z,84.28
2019-04-14T09:59:55.706Z,84.07
2019-04-14T10:00:56.069Z,85.00
2019-04-14T10:01:56.435Z,84.28
2019-04-14T10:02:56.866Z,84.69
2019-04-14T10:03:57.257Z,84.28
2019-04-14T10:04:57.610Z,83.76
2019-04-14T10:05:57.990Z,83.25
2019-04-14T10:06:58.353Z,84.17
2019-04-14T10:07:58.785Z,84.07
2019-04-14T10:08:59.127Z,83.76
2019-04-14T10:09:59.516Z,84.59
2019-04-14T10:10:59.919Z,84.69
2019-04-14T10:12:00.317Z,84.07
2019-04-14T10:13:00.801Z,84.38
2019-04-14T10:14:01.063Z,85.00
2019-04-14T10:15:01.444Z,84.59
2019-04-14T10:16:01.844Z,84.59
2019-04-14T10:17:02.233Z,84.07
2019-04-14T10:18:02.629Z,84.79
2019-04-14T10:19:03.043Z,85.14
2019-04-14T10:20:03.389Z,86.34
2019-04-14T10:21:16.257Z,85.00
2019-04-14T10:22:05.148Z,84.69
2019-04-14T10:23:04.559Z,86.34
2019-04-14T10:24:04.916Z,86.03
2019-04-14T10:25:05.338Z,86.03
2019-04-14T10:26:05.700Z,86.03
2019-04-14T10:27:06.064Z,85.62
2019-04-14T10:28:06.487Z,84.69
2019-04-14T10:29:06.879Z,84.79
2019-04-14T10:30:07.196Z,85.93
2019-04-14T10:31:07.601Z,84.48
2019-04-14T10:32:07.965Z,85.00
2019-04-14T10:33:08.383Z,86.24
2019-04-14T10:34:09.923Z,85.21
2019-04-14T10:35:09.099Z,84.59
2019-04-14T10:36:09.513Z,86.24
2019-04-14T10:37:10.018Z,86.03
2019-04-14T10:38:10.281Z,86.24
2019-04-14T10:39:10.628Z,86.03
2019-04-14T10:40:11.012Z,85.58
2019-04-14T10:41:11.401Z,85.89
2019-04-14T10:42:11.776Z,86.10
2019-04-14T10:43:12.201Z,85.27
2019-04-14T10:44:12.547Z,86.20
2019-04-14T10:45:12.958Z,85.78
2019-04-14T10:46:13.403Z,85.89
2019-04-14T10:47:13.681Z,86.16
2019-04-14T10:48:14.111Z,86.10
2019-04-14T10:49:14.458Z,84.41
2019-04-14T10:50:14.833Z,84.81
2019-04-14T10:51:15.241Z,85.85
2019-04-14T10:52:15.591Z,84.30
2019-04-14T10:53:16.032Z,84.92
2019-04-14T10:54:16.481Z,84.51
2019-04-14T10:55:16.752Z,84.92
2019-04-14T10:56:17.130Z,84.81
2019-04-14T10:57:17.494Z,84.20
2019-04-14T10:58:17.927Z,83.23
2019-04-14T10:59:18.292Z,83.85
2019-04-14T11:00:18.671Z,83.78
2019-04-14T11:01:19.074Z,83.75
2019-04-14T11:02:19.505Z,84.09
2019-04-14T11:03:19.842Z,83.99
2019-04-14T11:04:20.186Z,83.95
2019-04-14T11:05:20.571Z,84.47
2019-04-14T11:06:20.970Z,84.06
2019-04-14T11:07:21.332Z,83.81
2019-04-14T11:08:21.755Z,83.29
2019-04-14T11:09:22.101Z,81.75
2019-04-14T11:10:22.520Z,82.26
2019-04-14T11:11:22.877Z,82.26
2019-04-14T11:12:23.251Z,82.57
2019-04-14T11:13:23.671Z,82.47
2019-04-14T11:14:23.999Z,81.75
2019-04-14T11:15:24.394Z,82.54
2019-04-14T11:16:24.793Z,82.43
2019-04-14T11:17:25.170Z,82.19
2019-04-14T11:18:25.624Z,81.98
2019-04-14T11:19:25.974Z,81.98
2019-04-14T11:20:26.329Z,81.43
2019-04-14T11:21:26.791Z,81.05
2019-04-14T11:22:27.102Z,80.61
2019-04-14T11:23:27.507Z,80.81
2019-04-14T11:24:27.884Z,80.30
2019-04-14T11:25:28.225Z,80.36
2019-04-14T11:26:28.664Z,80.47
2019-04-14T11:27:29.149Z,80.26
2019-04-14T11:28:29.428Z,80.88
2019-04-14T11:29:29.808Z,80.12
2019-04-14T11:30:30.157Z,79.09
2019-04-14T11:31:30.572Z,79.71
2019-04-14T11:32:30.938Z,78.47
2019-04-14T11:33:31.332Z,78.17
2019-04-14T11:34:31.715Z,78.68
2019-04-14T11:35:32.204Z,79.30
2019-04-14T11:36:32.492Z,78.47
2019-04-14T11:37:33.076Z,78.89
2019-04-14T11:38:33.272Z,79.67
2019-04-14T11:39:33.646Z,79.57
2019-04-14T11:40:34.532Z,78.64
2019-04-14T11:41:34.383Z,76.59
2019-04-14T11:42:34.772Z,76.83
2019-04-14T11:43:35.225Z,76.90
2019-04-14T11:44:35.536Z,75.56
2019-04-14T11:45:35.931Z,75.46
2019-04-14T11:46:36.305Z,76.28
2019-04-14T11:47:36.656Z,76.18
2019-04-14T11:48:37.075Z,77.27
2019-04-14T11:49:37.455Z,76.45
2019-04-14T11:50:37.821Z,76.21
2019-04-14T11:51:38.274Z,76.14
2019-04-14T11:52:38.544Z,75.32
2019-04-14T11:53:38.985Z,75.12
2019-04-14T11:54:39.373Z,75.83
2019-04-14T11:55:39.743Z,74.33
2019-04-14T11:56:40.142Z,74.22
2019-04-14T11:57:40.509Z,75.04
2019-04-14T11:58:40.893Z,76.07
2019-04-14T11:59:41.298Z,75.73
2019-04-14T12:00:41.731Z,75.32
2019-04-14T12:01:42.050Z,73.78
2019-04-14T12:02:42.428Z,73.19
2019-04-14T12:03:42.804Z,72.89
2019-04-14T12:04:43.198Z,72.14
2019-04-14T12:05:43.588Z,71.59
2019-04-14T12:06:43.982Z,70.94
2019-04-14T12:07:44.358Z,68.79
2019-04-14T12:08:45.487Z,68.89
2019-04-14T12:09:45.134Z,69.27
2019-04-14T12:10:45.495Z,69.27
2019-04-14T12:11:45.901Z,68.86
2019-04-14T12:12:49.091Z,67.94
2019-04-14T12:13:46.674Z,67.29
2019-04-14T12:14:47.030Z,68.35
2019-04-14T12:15:47.422Z,66.78
2019-04-14T12:16:47.906Z,68.01
2019-04-14T12:17:48.213Z,65.58
2019-04-14T12:18:48.592Z,66.91
2019-04-14T12:19:48.957Z,67.11
2019-04-14T12:20:49.323Z,67.73
2019-04-14T12:21:49.723Z,67.43
2019-04-14T12:22:50.121Z,66.81
2019-04-14T12:23:50.565Z,68.24
2019-04-14T12:24:50.940Z,69.17
2019-04-14T12:25:51.238Z,68.83
2019-04-14T12:26:51.642Z,67.32
2019-04-14T12:27:52.065Z,66.71
2019-04-14T12:28:53.628Z,66.84
2019-04-14T12:29:52.820Z,67.66
2019-04-14T12:30:53.304Z,67.94
2019-04-14T12:31:53.559Z,67.52
2019-04-14T12:32:53.980Z,67.83
2019-04-14T12:33:54.423Z,67.02
2019-04-14T12:34:54.747Z,66.60
2019-04-14T12:35:55.095Z,66.91
2019-04-14T12:36:55.480Z,67.43
2019-04-14T12:37:55.867Z,67.83
2019-04-14T12:38:56.305Z,66.98
2019-04-14T12:39:56.640Z,66.98
2019-04-14T12:40:58.807Z,66.85
2019-04-14T12:41:57.490Z,65.42
2019-04-14T12:42:57.803Z,65.52
2019-04-14T12:43:58.222Z,65.11
2019-04-14T12:44:58.567Z,64.70
2019-04-14T12:45:58.939Z,65.04
2019-04-14T12:46:59.310Z,65.14
2019-04-14T12:47:59.696Z,65.24
2019-04-14T12:49:00.081Z,65.55
2019-04-14T12:50:00.581Z,66.27
2019-04-14T12:51:00.844Z,65.27
2019-04-14T12:52:01.221Z,65.78
2019-04-14T12:53:01.612Z,65.75
2019-04-14T12:54:02.026Z,66.27
2019-04-14T12:55:02.411Z,67.08
2019-04-14T12:56:02.779Z,66.67
2019-04-14T12:57:03.160Z,66.06
2019-04-14T12:58:03.602Z,66.57
2019-04-14T12:59:03.908Z,67.22
2019-04-14T13:00:04.316Z,66.81
2019-04-14T13:01:04.688Z,65.78
2019-04-14T13:02:05.076Z,66.47
2019-04-14T13:03:05.468Z,66.57
2019-04-14T13:04:05.864Z,66.06
2019-04-14T13:05:06.219Z,65.65
2019-04-14T13:06:06.641Z,66.06
2019-04-14T13:07:06.964Z,66.16
2019-04-14T13:08:07.371Z,66.67
2019-04-14T13:09:07.767Z,65.65
2019-04-14T13:10:08.145Z,65.04
2019-04-14T13:11:08.489Z,66.47